sensor_id;sensor_type;location;lat;lon;timestamp;temperature;humidity
39503;DHT22;26970;49.900;10.774;2022-09-09T00:07:30;13.40;99.90
39503;DHT22;26970;49.900;10.774;2022-09-09T00:10:30;13.40;99.90
39503;DHT22;26970;49.900;10.774;2022-09-09T00:13:15;13.40;99.90
39503;DHT22;26970;49.900;10.774;2022-09-09T00:15:59;13.40;99.90
39503;DHT22;26970;49.900;10.774;2022-09-09T00:18:32;13.50;99.90
39503;DHT22;26970;49.900;10.774;2022-09-09T00:21:07;13.40;99.90
39503;DHT22;26970;49.900;10.774;2022-09-09T00:23:39;13.50;99.90
39503;DHT22;26970;49.900;10.774;2022-09-09T00:28:43;13.50;99.90
39503;DHT22;26970;49.900;10.774;2022-09-09T00:31:13;13.50;99.90
39503;DHT22;26970;49.900;10.774;2022-09-09T00:33:40;13.50;99.90
39503;DHT22;26970;49.900;10.774;2022-09-09T00:36:13;13.50;99.90
39503;DHT22;26970;49.900;10.774;2022-09-09T00:38:45;13.40;99.90
39503;DHT22;26970;49.900;10.774;2022-09-09T00:41:49;13.50;99.90
39503;DHT22;26970;49.900;10.774;2022-09-09T00:44:34;13.60;99.90
39503;DHT22;26970;49.900;10.774;2022-09-09T00:47:31;13.60;99.90
39503;DHT22;26970;49.900;10.774;2022-09-09T00:50:15;13.60;99.90
39503;DHT22;26970;49.900;10.774;2022-09-09T00:55:39;13.50;99.90
39503;DHT22;26970;49.900;10.774;2022-09-09T00:58:08;13.60;99.90
39503;DHT22;26970;49.900;10.774;2022-09-09T01:01:24;13.60;99.90
39503;DHT22;26970;49.900;10.774;2022-09-09T01:03:49;13.60;99.90
39503;DHT22;26970;49.900;10.774;2022-09-09T01:06:22;13.50;99.90
39503;DHT22;26970;49.900;10.774;2022-09-09T01:09:08;13.50;99.90
39503;DHT22;26970;49.900;10.774;2022-09-09T01:17:25;13.20;99.90
39503;DHT22;26970;49.900;10.774;2022-09-09T01:20:14;13.10;99.90
39503;DHT22;26970;49.900;10.774;2022-09-09T01:28:25;13.00;99.90
39503;DHT22;26970;49.900;10.774;2022-09-09T01:30:51;13.00;99.90
39503;DHT22;26970;49.900;10.774;2022-09-09T01:33:18;13.10;99.90
39503;DHT22;26970;49.900;10.774;2022-09-09T01:38:26;13.20;99.90
39503;DHT22;26970;49.900;10.774;2022-09-09T01:40:53;13.10;99.90
39503;DHT22;26970;49.900;10.774;2022-09-09T01:43:22;13.20;99.90
39503;DHT22;26970;49.900;10.774;2022-09-09T01:45:54;13.20;99.90
39503;DHT22;26970;49.900;10.774;2022-09-09T01:48:22;13.30;99.90
39503;DHT22;26970;49.900;10.774;2022-09-09T01:50:49;13.30;99.90
39503;DHT22;26970;49.900;10.774;2022-09-09T01:53:15;13.40;99.90
39503;DHT22;26970;49.900;10.774;2022-09-09T01:55:47;13.40;99.90
39503;DHT22;26970;49.900;10.774;2022-09-09T02:07:11;13.50;99.90
39503;DHT22;26970;49.900;10.774;2022-09-09T02:09:41;13.50;99.90
39503;DHT22;26970;49.900;10.774;2022-09-09T02:12:14;13.50;99.90
39503;DHT22;26970;49.900;10.774;2022-09-09T02:14:48;13.40;99.90
39503;DHT22;26970;49.900;10.774;2022-09-09T02:17:19;13.50;99.90
39503;DHT22;26970;49.900;10.774;2022-09-09T02:19:49;13.40;99.90
39503;DHT22;26970;49.900;10.774;2022-09-09T02:22:19;13.50;99.90
39503;DHT22;26970;49.900;10.774;2022-09-09T02:24:47;13.40;99.90
39503;DHT22;26970;49.900;10.774;2022-09-09T02:27:13;13.40;99.90
39503;DHT22;26970;49.900;10.774;2022-09-09T02:29:41;13.40;99.90
39503;DHT22;26970;49.900;10.774;2022-09-09T02:32:15;13.40;99.90
39503;DHT22;26970;49.900;10.774;2022-09-09T02:34:46;13.50;99.90
39503;DHT22;26970;49.900;10.774;2022-09-09T02:37:15;13.50;99.90
39503;DHT22;26970;49.900;10.774;2022-09-09T02:39:42;13.60;99.90
39503;DHT22;26970;49.900;10.774;2022-09-09T02:42:08;13.50;99.90
39503;DHT22;26970;49.900;10.774;2022-09-09T02:44:34;13.40;99.90
39503;DHT22;26970;49.900;10.774;2022-09-09T02:47:34;13.50;99.90
39503;DHT22;26970;49.900;10.774;2022-09-09T02:50:13;13.40;99.90
39503;DHT22;26970;49.900;10.774;2022-09-09T02:55:46;13.50;99.90
39503;DHT22;26970;49.900;10.774;2022-09-09T02:58:15;13.50;99.90
39503;DHT22;26970;49.900;10.774;2022-09-09T03:00:50;13.60;99.90
39503;DHT22;26970;49.900;10.774;2022-09-09T03:03:17;13.50;99.90
39503;DHT22;26970;49.900;10.774;2022-09-09T03:05:43;13.60;99.90
39503;DHT22;26970;49.900;10.774;2022-09-09T03:08:09;13.60;99.90
39503;DHT22;26970;49.900;10.774;2022-09-09T03:10:35;13.70;99.90
39503;DHT22;26970;49.900;10.774;2022-09-09T03:13:02;13.60;99.90
39503;DHT22;26970;49.900;10.774;2022-09-09T03:15:29;13.70;99.90
39503;DHT22;26970;49.900;10.774;2022-09-09T03:17:56;13.60;99.90
39503;DHT22;26970;49.900;10.774;2022-09-09T03:20:24;13.60;99.90
39503;DHT22;26970;49.900;10.774;2022-09-09T03:22:53;13.60;99.90
39503;DHT22;26970;49.900;10.774;2022-09-09T03:25:19;13.60;99.90
39503;DHT22;26970;49.900;10.774;2022-09-09T03:27:45;13.80;99.90
39503;DHT22;26970;49.900;10.774;2022-09-09T03:30:11;13.60;99.90
39503;DHT22;26970;49.900;10.774;2022-09-09T03:32:36;13.60;99.90
39503;DHT22;26970;49.900;10.774;2022-09-09T03:35:02;13.50;99.90
39503;DHT22;26970;49.900;10.774;2022-09-09T03:37:28;13.50;99.90
39503;DHT22;26970;49.900;10.774;2022-09-09T03:39:54;13.50;99.90
39503;DHT22;26970;49.900;10.774;2022-09-09T03:42:20;13.50;99.90
39503;DHT22;26970;49.900;10.774;2022-09-09T03:44:46;13.50;99.90
39503;DHT22;26970;49.900;10.774;2022-09-09T03:47:18;13.50;99.90
39503;DHT22;26970;49.900;10.774;2022-09-09T03:49:44;13.50;99.90
39503;DHT22;26970;49.900;10.774;2022-09-09T03:52:10;13.50;99.90
39503;DHT22;26970;49.900;10.774;2022-09-09T03:54:36;13.50;99.90
39503;DHT22;26970;49.900;10.774;2022-09-09T03:57:02;13.50;99.90
39503;DHT22;26970;49.900;10.774;2022-09-09T03:59:27;13.50;99.90
39503;DHT22;26970;49.900;10.774;2022-09-09T04:01:53;13.50;99.90
39503;DHT22;26970;49.900;10.774;2022-09-09T04:04:20;13.50;99.90
39503;DHT22;26970;49.900;10.774;2022-09-09T04:06:46;13.50;99.90
39503;DHT22;26970;49.900;10.774;2022-09-09T04:09:13;13.50;99.90
39503;DHT22;26970;49.900;10.774;2022-09-09T04:11:39;13.60;99.90
39503;DHT22;26970;49.900;10.774;2022-09-09T04:14:04;13.50;99.90
39503;DHT22;26970;49.900;10.774;2022-09-09T04:16:32;13.50;99.90
39503;DHT22;26970;49.900;10.774;2022-09-09T04:18:58;13.50;99.90
39503;DHT22;26970;49.900;10.774;2022-09-09T04:21:25;13.50;99.90
39503;DHT22;26970;49.900;10.774;2022-09-09T04:23:51;13.50;99.90
39503;DHT22;26970;49.900;10.774;2022-09-09T04:26:17;13.50;99.90
39503;DHT22;26970;49.900;10.774;2022-09-09T04:28:42;13.50;99.90
39503;DHT22;26970;49.900;10.774;2022-09-09T04:31:10;13.50;99.90
39503;DHT22;26970;49.900;10.774;2022-09-09T04:33:39;13.60;99.90
39503;DHT22;26970;49.900;10.774;2022-09-09T04:36:06;13.50;99.90
39503;DHT22;26970;49.900;10.774;2022-09-09T04:38:32;13.60;99.90
39503;DHT22;26970;49.900;10.774;2022-09-09T04:40:57;13.50;99.90
39503;DHT22;26970;49.900;10.774;2022-09-09T04:43:23;13.60;99.90
39503;DHT22;26970;49.900;10.774;2022-09-09T04:45:51;13.50;99.90
39503;DHT22;26970;49.900;10.774;2022-09-09T04:48:17;13.50;99.90
39503;DHT22;26970;49.900;10.774;2022-09-09T04:50:42;13.60;99.90
39503;DHT22;26970;49.900;10.774;2022-09-09T04:53:08;13.50;99.90
39503;DHT22;26970;49.900;10.774;2022-09-09T04:55:35;13.40;99.90
39503;DHT22;26970;49.900;10.774;2022-09-09T04:58:08;13.50;99.90
39503;DHT22;26970;49.900;10.774;2022-09-09T05:00:35;13.50;99.90
39503;DHT22;26970;49.900;10.774;2022-09-09T05:03:05;13.50;99.90
39503;DHT22;26970;49.900;10.774;2022-09-09T05:05:34;13.50;99.90
39503;DHT22;26970;49.900;10.774;2022-09-09T05:08:04;13.60;99.90
39503;DHT22;26970;49.900;10.774;2022-09-09T05:10:30;13.50;99.90
39503;DHT22;26970;49.900;10.774;2022-09-09T05:12:56;13.60;99.90
39503;DHT22;26970;49.900;10.774;2022-09-09T05:15:22;13.60;99.90
39503;DHT22;26970;49.900;10.774;2022-09-09T05:17:47;13.60;99.90
39503;DHT22;26970;49.900;10.774;2022-09-09T05:20:13;13.60;99.90
39503;DHT22;26970;49.900;10.774;2022-09-09T05:22:38;13.60;99.90
39503;DHT22;26970;49.900;10.774;2022-09-09T05:25:04;13.60;99.90
39503;DHT22;26970;49.900;10.774;2022-09-09T05:27:30;13.70;99.90
39503;DHT22;26970;49.900;10.774;2022-09-09T05:29:58;13.70;99.90
39503;DHT22;26970;49.900;10.774;2022-09-09T05:32:23;13.70;99.90
39503;DHT22;26970;49.900;10.774;2022-09-09T05:34:49;13.70;99.90
39503;DHT22;26970;49.900;10.774;2022-09-09T05:37:15;13.70;99.90
39503;DHT22;26970;49.900;10.774;2022-09-09T05:39:41;13.70;99.90
39503;DHT22;26970;49.900;10.774;2022-09-09T05:42:07;13.90;99.90
39503;DHT22;26970;49.900;10.774;2022-09-09T05:44:33;13.90;99.90
39503;DHT22;26970;49.900;10.774;2022-09-09T05:46:58;14.00;99.90
39503;DHT22;26970;49.900;10.774;2022-09-09T05:49:24;14.00;99.90
39503;DHT22;26970;49.900;10.774;2022-09-09T05:51:50;14.10;99.90
39503;DHT22;26970;49.900;10.774;2022-09-09T05:54:16;14.00;99.90
39503;DHT22;26970;49.900;10.774;2022-09-09T05:56:42;14.00;99.90
39503;DHT22;26970;49.900;10.774;2022-09-09T05:59:08;14.00;99.90
39503;DHT22;26970;49.900;10.774;2022-09-09T06:01:35;14.00;99.90
39503;DHT22;26970;49.900;10.774;2022-09-09T06:04:02;14.00;99.90
39503;DHT22;26970;49.900;10.774;2022-09-09T06:06:32;14.00;99.90
39503;DHT22;26970;49.900;10.774;2022-09-09T06:09:03;14.10;99.90
39503;DHT22;26970;49.900;10.774;2022-09-09T06:11:32;14.00;99.90
39503;DHT22;26970;49.900;10.774;2022-09-09T06:13:58;13.90;99.90
39503;DHT22;26970;49.900;10.774;2022-09-09T06:16:26;13.80;99.90
39503;DHT22;26970;49.900;10.774;2022-09-09T06:18:53;13.90;99.90
39503;DHT22;26970;49.900;10.774;2022-09-09T06:21:27;14.20;99.90
39503;DHT22;26970;49.900;10.774;2022-09-09T06:23:53;14.60;99.90
39503;DHT22;26970;49.900;10.774;2022-09-09T06:26:23;15.00;99.90
39503;DHT22;26970;49.900;10.774;2022-09-09T06:28:50;15.30;99.90
39503;DHT22;26970;49.900;10.774;2022-09-09T06:31:20;15.60;99.90
39503;DHT22;26970;49.900;10.774;2022-09-09T06:33:53;15.70;99.90
39503;DHT22;26970;49.900;10.774;2022-09-09T06:36:22;15.70;99.90
39503;DHT22;26970;49.900;10.774;2022-09-09T06:38:48;15.60;99.90
39503;DHT22;26970;49.900;10.774;2022-09-09T06:41:16;15.50;99.90
39503;DHT22;26970;49.900;10.774;2022-09-09T06:43:42;15.50;99.90
39503;DHT22;26970;49.900;10.774;2022-09-09T06:46:20;15.50;99.90
39503;DHT22;26970;49.900;10.774;2022-09-09T06:48:47;15.40;99.90
39503;DHT22;26970;49.900;10.774;2022-09-09T06:51:17;15.50;99.90
39503;DHT22;26970;49.900;10.774;2022-09-09T06:53:45;15.60;99.90
39503;DHT22;26970;49.900;10.774;2022-09-09T06:58:37;15.70;99.90
39503;DHT22;26970;49.900;10.774;2022-09-09T07:01:08;15.60;99.90
39503;DHT22;26970;49.900;10.774;2022-09-09T07:03:34;15.60;99.90
39503;DHT22;26970;49.900;10.774;2022-09-09T07:06:00;15.60;99.90
39503;DHT22;26970;49.900;10.774;2022-09-09T07:08:26;15.60;99.90
39503;DHT22;26970;49.900;10.774;2022-09-09T07:10:52;15.80;99.90
39503;DHT22;26970;49.900;10.774;2022-09-09T07:13:23;15.90;99.90
39503;DHT22;26970;49.900;10.774;2022-09-09T07:15:51;16.00;99.90
39503;DHT22;26970;49.900;10.774;2022-09-09T07:18:17;16.00;99.90
39503;DHT22;26970;49.900;10.774;2022-09-09T07:20:42;16.00;99.90
39503;DHT22;26970;49.900;10.774;2022-09-09T07:23:08;16.00;99.90
39503;DHT22;26970;49.900;10.774;2022-09-09T07:25:33;16.00;99.90
39503;DHT22;26970;49.900;10.774;2022-09-09T07:27:59;16.00;99.90
39503;DHT22;26970;49.900;10.774;2022-09-09T07:30:25;16.10;99.90
39503;DHT22;26970;49.900;10.774;2022-09-09T07:32:53;16.20;99.90
39503;DHT22;26970;49.900;10.774;2022-09-09T07:35:19;16.30;99.90
39503;DHT22;26970;49.900;10.774;2022-09-09T07:37:45;16.60;99.90
39503;DHT22;26970;49.900;10.774;2022-09-09T07:40:11;16.90;99.90
39503;DHT22;26970;49.900;10.774;2022-09-09T07:42:36;16.90;99.90
39503;DHT22;26970;49.900;10.774;2022-09-09T07:45:03;17.10;99.90
39503;DHT22;26970;49.900;10.774;2022-09-09T07:47:29;17.30;99.90
39503;DHT22;26970;49.900;10.774;2022-09-09T07:49:55;17.30;99.90
39503;DHT22;26970;49.900;10.774;2022-09-09T07:52:21;17.40;99.90
39503;DHT22;26970;49.900;10.774;2022-09-09T07:54:47;17.40;99.90
39503;DHT22;26970;49.900;10.774;2022-09-09T07:57:12;17.60;99.90
39503;DHT22;26970;49.900;10.774;2022-09-09T07:59:38;17.80;99.90
39503;DHT22;26970;49.900;10.774;2022-09-09T08:02:04;18.10;99.90
39503;DHT22;26970;49.900;10.774;2022-09-09T08:04:30;18.40;99.90
39503;DHT22;26970;49.900;10.774;2022-09-09T08:06:58;18.50;99.90
39503;DHT22;26970;49.900;10.774;2022-09-09T08:09:25;18.60;99.90
39503;DHT22;26970;49.900;10.774;2022-09-09T08:11:55;18.70;99.90
39503;DHT22;26970;49.900;10.774;2022-09-09T08:14:22;18.90;99.90
39503;DHT22;26970;49.900;10.774;2022-09-09T08:16:49;18.80;99.90
39503;DHT22;26970;49.900;10.774;2022-09-09T08:19:16;18.70;99.90
39503;DHT22;26970;49.900;10.774;2022-09-09T08:21:43;18.50;99.90
39503;DHT22;26970;49.900;10.774;2022-09-09T08:24:11;18.50;99.90
39503;DHT22;26970;49.900;10.774;2022-09-09T08:26:39;18.60;99.90
39503;DHT22;26970;49.900;10.774;2022-09-09T08:29:07;18.80;99.90
39503;DHT22;26970;49.900;10.774;2022-09-09T08:31:36;18.90;99.90
39503;DHT22;26970;49.900;10.774;2022-09-09T08:34:03;18.80;99.90
39503;DHT22;26970;49.900;10.774;2022-09-09T08:36:31;18.80;99.90
39503;DHT22;26970;49.900;10.774;2022-09-09T08:38:58;18.70;99.90
39503;DHT22;26970;49.900;10.774;2022-09-09T08:41:29;18.60;99.90
39503;DHT22;26970;49.900;10.774;2022-09-09T08:44:13;18.50;99.90
39503;DHT22;26970;49.900;10.774;2022-09-09T08:51:43;18.50;99.90
39503;DHT22;26970;49.900;10.774;2022-09-09T08:54:09;18.70;99.90
39503;DHT22;26970;49.900;10.774;2022-09-09T08:56:35;19.00;99.90
39503;DHT22;26970;49.900;10.774;2022-09-09T08:59:04;19.30;99.90
39503;DHT22;26970;49.900;10.774;2022-09-09T09:07:23;20.00;99.90
39503;DHT22;26970;49.900;10.774;2022-09-09T09:12:41;19.90;99.90
39503;DHT22;26970;49.900;10.774;2022-09-09T09:15:22;20.10;99.90
39503;DHT22;26970;49.900;10.774;2022-09-09T09:17:48;20.30;99.90
39503;DHT22;26970;49.900;10.774;2022-09-09T09:20:15;20.40;99.90
39503;DHT22;26970;49.900;10.774;2022-09-09T09:22:49;20.40;99.90
39503;DHT22;26970;49.900;10.774;2022-09-09T09:25:38;20.50;99.90
39503;DHT22;26970;49.900;10.774;2022-09-09T09:28:29;20.80;99.90
39503;DHT22;26970;49.900;10.774;2022-09-09T09:31:06;21.10;99.90
39503;DHT22;26970;49.900;10.774;2022-09-09T09:36:07;21.20;99.90
39503;DHT22;26970;49.900;10.774;2022-09-09T09:38:34;21.10;99.90
39503;DHT22;26970;49.900;10.774;2022-09-09T09:41:00;20.90;99.90
39503;DHT22;26970;49.900;10.774;2022-09-09T09:43:40;20.90;99.90
39503;DHT22;26970;49.900;10.774;2022-09-09T09:46:20;21.00;99.90
39503;DHT22;26970;49.900;10.774;2022-09-09T09:48:59;20.90;99.90
39503;DHT22;26970;49.900;10.774;2022-09-09T09:56:39;20.50;99.90
39503;DHT22;26970;49.900;10.774;2022-09-09T09:59:11;20.60;99.90
39503;DHT22;26970;49.900;10.774;2022-09-09T10:01:44;20.60;99.90
39503;DHT22;26970;49.900;10.774;2022-09-09T10:04:21;20.70;99.90
39503;DHT22;26970;49.900;10.774;2022-09-09T10:06:49;20.90;99.90
39503;DHT22;26970;49.900;10.774;2022-09-09T10:09:33;21.00;99.90
39503;DHT22;26970;49.900;10.774;2022-09-09T10:12:30;21.10;99.90
39503;DHT22;26970;49.900;10.774;2022-09-09T10:26:10;21.10;99.90
39503;DHT22;26970;49.900;10.774;2022-09-09T10:31:39;20.80;99.90
39503;DHT22;26970;49.900;10.774;2022-09-09T10:36:49;20.50;99.90
39503;DHT22;26970;49.900;10.774;2022-09-09T10:39:36;20.50;99.90
39503;DHT22;26970;49.900;10.774;2022-09-09T10:42:16;20.50;99.90
39503;DHT22;26970;49.900;10.774;2022-09-09T10:52:58;20.40;99.90
39503;DHT22;26970;49.900;10.774;2022-09-09T10:55:37;20.30;99.90
39503;DHT22;26970;49.900;10.774;2022-09-09T10:58:05;20.40;99.90
39503;DHT22;26970;49.900;10.774;2022-09-09T11:00:45;20.40;99.90
39503;DHT22;26970;49.900;10.774;2022-09-09T11:03:24;20.70;99.90
39503;DHT22;26970;49.900;10.774;2022-09-09T11:05:53;21.30;99.90
39503;DHT22;26970;49.900;10.774;2022-09-09T11:08:24;22.00;99.90
39503;DHT22;26970;49.900;10.774;2022-09-09T11:11:11;22.30;99.90
39503;DHT22;26970;49.900;10.774;2022-09-09T11:13:55;22.50;99.90
39503;DHT22;26970;49.900;10.774;2022-09-09T11:16:48;22.60;99.90
39503;DHT22;26970;49.900;10.774;2022-09-09T11:19:38;22.70;99.90
39503;DHT22;26970;49.900;10.774;2022-09-09T11:25:23;22.70;99.90
39503;DHT22;26970;49.900;10.774;2022-09-09T11:36:35;22.60;99.90
39503;DHT22;26970;49.900;10.774;2022-09-09T11:39:14;22.10;99.90
39503;DHT22;26970;49.900;10.774;2022-09-09T11:41:47;22.00;99.90
39503;DHT22;26970;49.900;10.774;2022-09-09T11:44:16;21.90;99.90
39503;DHT22;26970;49.900;10.774;2022-09-09T11:46:43;21.80;99.90
39503;DHT22;26970;49.900;10.774;2022-09-09T11:51:55;21.50;99.90
39503;DHT22;26970;49.900;10.774;2022-09-09T11:54:31;21.50;99.90
39503;DHT22;26970;49.900;10.774;2022-09-09T11:56:57;21.90;99.90
39503;DHT22;26970;49.900;10.774;2022-09-09T11:59:24;22.00;99.90
39503;DHT22;26970;49.900;10.774;2022-09-09T12:06:57;20.30;99.90
39503;DHT22;26970;49.900;10.774;2022-09-09T12:09:31;20.00;99.90
39503;DHT22;26970;49.900;10.774;2022-09-09T12:19:41;19.60;99.90
39503;DHT22;26970;49.900;10.774;2022-09-09T12:22:09;19.50;99.90
39503;DHT22;26970;49.900;10.774;2022-09-09T12:27:07;19.70;99.90
39503;DHT22;26970;49.900;10.774;2022-09-09T12:34:42;20.30;99.90
39503;DHT22;26970;49.900;10.774;2022-09-09T12:39:49;19.80;99.90
39503;DHT22;26970;49.900;10.774;2022-09-09T12:42:17;19.70;99.90
39503;DHT22;26970;49.900;10.774;2022-09-09T12:44:52;19.60;99.90
39503;DHT22;26970;49.900;10.774;2022-09-09T12:47:23;19.70;99.90
39503;DHT22;26970;49.900;10.774;2022-09-09T12:49:49;19.80;99.90
39503;DHT22;26970;49.900;10.774;2022-09-09T12:54:44;19.90;99.90
39503;DHT22;26970;49.900;10.774;2022-09-09T12:57:12;20.00;99.90
39503;DHT22;26970;49.900;10.774;2022-09-09T12:59:39;20.10;99.90
39503;DHT22;26970;49.900;10.774;2022-09-09T13:04:45;20.50;99.90
39503;DHT22;26970;49.900;10.774;2022-09-09T13:07:12;20.90;99.90
39503;DHT22;26970;49.900;10.774;2022-09-09T13:09:39;21.10;99.90
39503;DHT22;26970;49.900;10.774;2022-09-09T13:12:04;21.30;99.90
39503;DHT22;26970;49.900;10.774;2022-09-09T13:14:33;21.50;99.90
39503;DHT22;26970;49.900;10.774;2022-09-09T13:17:00;21.70;99.90
39503;DHT22;26970;49.900;10.774;2022-09-09T13:19:33;21.90;99.30
39503;DHT22;26970;49.900;10.774;2022-09-09T13:22:10;22.10;99.10
39503;DHT22;26970;49.900;10.774;2022-09-09T13:24:37;22.30;99.10
39503;DHT22;26970;49.900;10.774;2022-09-09T13:27:04;22.30;98.90
39503;DHT22;26970;49.900;10.774;2022-09-09T13:29:30;22.20;98.50
39503;DHT22;26970;49.900;10.774;2022-09-09T13:32:06;22.00;98.50
39503;DHT22;26970;49.900;10.774;2022-09-09T13:34:33;22.10;99.50
39503;DHT22;26970;49.900;10.774;2022-09-09T13:37:04;21.90;99.00
39503;DHT22;26970;49.900;10.774;2022-09-09T13:39:35;21.80;99.40
39503;DHT22;26970;49.900;10.774;2022-09-09T13:42:02;22.00;98.80
39503;DHT22;26970;49.900;10.774;2022-09-09T13:44:28;22.10;98.90
39503;DHT22;26970;49.900;10.774;2022-09-09T13:49:53;21.70;96.90
39503;DHT22;26970;49.900;10.774;2022-09-09T13:52:19;21.60;98.10
39503;DHT22;26970;49.900;10.774;2022-09-09T13:54:48;21.40;97.70
39503;DHT22;26970;49.900;10.774;2022-09-09T13:57:15;21.60;98.60
39503;DHT22;26970;49.900;10.774;2022-09-09T13:59:42;21.70;98.00
39503;DHT22;26970;49.900;10.774;2022-09-09T14:02:08;22.00;97.80
39503;DHT22;26970;49.900;10.774;2022-09-09T14:04:36;22.10;97.00
39503;DHT22;26970;49.900;10.774;2022-09-09T14:07:02;22.20;97.00
39503;DHT22;26970;49.900;10.774;2022-09-09T14:09:28;22.20;97.00
39503;DHT22;26970;49.900;10.774;2022-09-09T14:11:53;22.30;97.00
39503;DHT22;26970;49.900;10.774;2022-09-09T14:14:20;22.20;97.00
39503;DHT22;26970;49.900;10.774;2022-09-09T14:16:46;22.30;97.10
39503;DHT22;26970;49.900;10.774;2022-09-09T14:19:12;22.30;97.40
39503;DHT22;26970;49.900;10.774;2022-09-09T14:21:37;22.40;97.30
39503;DHT22;26970;49.900;10.774;2022-09-09T14:24:03;22.40;97.70
39503;DHT22;26970;49.900;10.774;2022-09-09T14:26:28;22.40;97.80
39503;DHT22;26970;49.900;10.774;2022-09-09T14:28:55;22.30;97.60
39503;DHT22;26970;49.900;10.774;2022-09-09T14:31:21;22.10;97.50
39503;DHT22;26970;49.900;10.774;2022-09-09T14:33:47;21.90;97.30
39503;DHT22;26970;49.900;10.774;2022-09-09T14:36:12;21.90;97.90
39503;DHT22;26970;49.900;10.774;2022-09-09T14:38:38;21.80;98.10
39503;DHT22;26970;49.900;10.774;2022-09-09T14:41:11;21.80;98.00
39503;DHT22;26970;49.900;10.774;2022-09-09T14:43:37;21.70;96.90
39503;DHT22;26970;49.900;10.774;2022-09-09T14:46:06;21.50;96.80
39503;DHT22;26970;49.900;10.774;2022-09-09T14:48:32;21.40;97.20
39503;DHT22;26970;49.900;10.774;2022-09-09T14:51:04;21.30;97.40
39503;DHT22;26970;49.900;10.774;2022-09-09T14:53:29;21.20;97.60
39503;DHT22;26970;49.900;10.774;2022-09-09T14:56:02;21.10;97.90
39503;DHT22;26970;49.900;10.774;2022-09-09T14:58:30;21.10;98.40
39503;DHT22;26970;49.900;10.774;2022-09-09T15:00:55;21.00;99.90
39503;DHT22;26970;49.900;10.774;2022-09-09T15:03:26;20.60;99.90
39503;DHT22;26970;49.900;10.774;2022-09-09T15:05:51;20.20;99.90
39503;DHT22;26970;49.900;10.774;2022-09-09T15:08:17;19.80;99.90
39503;DHT22;26970;49.900;10.774;2022-09-09T15:10:42;19.40;99.90
39503;DHT22;26970;49.900;10.774;2022-09-09T15:13:10;19.30;99.90
39503;DHT22;26970;49.900;10.774;2022-09-09T15:15:35;19.20;99.90
39503;DHT22;26970;49.900;10.774;2022-09-09T15:18:00;19.20;99.90
39503;DHT22;26970;49.900;10.774;2022-09-09T15:20:26;19.20;99.90
39503;DHT22;26970;49.900;10.774;2022-09-09T15:22:51;19.10;99.90
39503;DHT22;26970;49.900;10.774;2022-09-09T15:25:18;19.00;99.90
39503;DHT22;26970;49.900;10.774;2022-09-09T15:27:43;19.10;99.90
39503;DHT22;26970;49.900;10.774;2022-09-09T15:30:09;19.10;99.90
39503;DHT22;26970;49.900;10.774;2022-09-09T15:32:35;19.20;99.90
39503;DHT22;26970;49.900;10.774;2022-09-09T15:35:00;19.30;99.90
39503;DHT22;26970;49.900;10.774;2022-09-09T15:37:26;19.40;99.90
39503;DHT22;26970;49.900;10.774;2022-09-09T15:39:52;19.40;99.90
39503;DHT22;26970;49.900;10.774;2022-09-09T15:42:17;19.40;99.90
39503;DHT22;26970;49.900;10.774;2022-09-09T15:44:43;19.50;99.90
39503;DHT22;26970;49.900;10.774;2022-09-09T15:47:11;19.50;99.90
39503;DHT22;26970;49.900;10.774;2022-09-09T15:49:40;19.50;99.90
39503;DHT22;26970;49.900;10.774;2022-09-09T15:52:06;19.60;99.90
39503;DHT22;26970;49.900;10.774;2022-09-09T15:54:32;19.60;99.90
39503;DHT22;26970;49.900;10.774;2022-09-09T15:56:58;19.50;99.90
39503;DHT22;26970;49.900;10.774;2022-09-09T15:59:24;19.40;99.90
39503;DHT22;26970;49.900;10.774;2022-09-09T16:01:50;19.30;99.90
39503;DHT22;26970;49.900;10.774;2022-09-09T16:04:17;19.30;99.90
39503;DHT22;26970;49.900;10.774;2022-09-09T16:06:55;19.20;99.90
39503;DHT22;26970;49.900;10.774;2022-09-09T16:09:22;19.20;99.90
39503;DHT22;26970;49.900;10.774;2022-09-09T16:11:48;19.10;99.90
39503;DHT22;26970;49.900;10.774;2022-09-09T16:14:14;19.00;99.90
39503;DHT22;26970;49.900;10.774;2022-09-09T16:16:41;19.00;99.90
39503;DHT22;26970;49.900;10.774;2022-09-09T16:19:08;18.90;99.90
39503;DHT22;26970;49.900;10.774;2022-09-09T16:21:36;18.80;99.90
39503;DHT22;26970;49.900;10.774;2022-09-09T16:24:03;18.80;99.90
39503;DHT22;26970;49.900;10.774;2022-09-09T16:26:29;18.70;99.90
39503;DHT22;26970;49.900;10.774;2022-09-09T16:28:55;18.70;99.90
39503;DHT22;26970;49.900;10.774;2022-09-09T16:31:22;18.70;99.90
39503;DHT22;26970;49.900;10.774;2022-09-09T16:33:47;18.80;99.90
39503;DHT22;26970;49.900;10.774;2022-09-09T16:36:14;18.90;99.90
39503;DHT22;26970;49.900;10.774;2022-09-09T16:38:40;19.00;99.90
39503;DHT22;26970;49.900;10.774;2022-09-09T16:41:06;18.90;99.90
39503;DHT22;26970;49.900;10.774;2022-09-09T16:43:32;18.80;99.90
39503;DHT22;26970;49.900;10.774;2022-09-09T16:45:58;18.60;99.90
39503;DHT22;26970;49.900;10.774;2022-09-09T16:48:26;18.40;99.90
39503;DHT22;26970;49.900;10.774;2022-09-09T16:50:52;18.30;99.90
39503;DHT22;26970;49.900;10.774;2022-09-09T16:53:18;18.30;99.90
39503;DHT22;26970;49.900;10.774;2022-09-09T16:55:43;18.20;99.90
39503;DHT22;26970;49.900;10.774;2022-09-09T16:58:12;18.20;99.90
39503;DHT22;26970;49.900;10.774;2022-09-09T17:00:38;18.10;99.90
39503;DHT22;26970;49.900;10.774;2022-09-09T17:03:03;17.90;99.90
39503;DHT22;26970;49.900;10.774;2022-09-09T17:05:29;17.90;99.90
39503;DHT22;26970;49.900;10.774;2022-09-09T17:07:54;17.90;99.90
39503;DHT22;26970;49.900;10.774;2022-09-09T17:10:23;17.80;99.90
39503;DHT22;26970;49.900;10.774;2022-09-09T17:12:48;17.80;99.90
39503;DHT22;26970;49.900;10.774;2022-09-09T17:15:13;17.70;99.90
39503;DHT22;26970;49.900;10.774;2022-09-09T17:17:40;17.60;99.90
39503;DHT22;26970;49.900;10.774;2022-09-09T17:20:09;17.70;99.90
39503;DHT22;26970;49.900;10.774;2022-09-09T17:22:34;17.60;99.90
39503;DHT22;26970;49.900;10.774;2022-09-09T17:25:00;17.70;99.90
39503;DHT22;26970;49.900;10.774;2022-09-09T17:27:25;17.50;99.90
39503;DHT22;26970;49.900;10.774;2022-09-09T17:29:51;17.50;99.90
39503;DHT22;26970;49.900;10.774;2022-09-09T17:32:16;17.50;99.90
39503;DHT22;26970;49.900;10.774;2022-09-09T17:34:43;17.40;99.90
39503;DHT22;26970;49.900;10.774;2022-09-09T17:37:08;17.30;99.90
39503;DHT22;26970;49.900;10.774;2022-09-09T17:39:33;17.30;99.90